sensor_id;sensor_type;location;lat;lon;timestamp;P1;durP1;ratioP1;P2;durP2;ratioP2
72674;SDS011;60752;53.962;9.614;2023-02-18T00:01:28;19.00;;;3.35;;
72674;SDS011;60752;53.962;9.614;2023-02-18T00:06:29;15.70;;;3.30;;
72674;SDS011;60752;53.962;9.614;2023-02-18T00:11:32;18.30;;;2.70;;
72674;SDS011;60752;53.962;9.614;2023-02-18T00:16:36;11.38;;;2.30;;
72674;SDS011;60752;53.962;9.614;2023-02-18T00:21:37;19.67;;;3.70;;
72674;SDS011;60752;53.962;9.614;2023-02-18T00:26:37;25.87;;;2.70;;
72674;SDS011;60752;53.962;9.614;2023-02-18T00:31:39;18.23;;;2.93;;
72674;SDS011;60752;53.962;9.614;2023-02-18T00:36:40;18.65;;;3.58;;
72674;SDS011;60752;53.962;9.614;2023-02-18T00:41:40;14.73;;;2.73;;
72674;SDS011;60752;53.962;9.614;2023-02-18T00:46:42;16.05;;;2.97;;
72674;SDS011;60752;53.962;9.614;2023-02-18T00:51:43;17.70;;;2.43;;
72674;SDS011;60752;53.962;9.614;2023-02-18T00:56:43;10.30;;;1.97;;
72674;SDS011;60752;53.962;9.614;2023-02-18T01:01:45;17.63;;;2.70;;
72674;SDS011;60752;53.962;9.614;2023-02-18T01:06:45;18.48;;;2.28;;
72674;SDS011;60752;53.962;9.614;2023-02-18T01:11:46;13.63;;;2.57;;
72674;SDS011;60752;53.962;9.614;2023-02-18T01:16:48;21.13;;;2.53;;
72674;SDS011;60752;53.962;9.614;2023-02-18T01:21:48;14.88;;;2.05;;
72674;SDS011;60752;53.962;9.614;2023-02-18T01:26:48;14.63;;;2.20;;
72674;SDS011;60752;53.962;9.614;2023-02-18T01:31:50;16.07;;;2.33;;
72674;SDS011;60752;53.962;9.614;2023-02-18T01:36:51;17.95;;;2.45;;
72674;SDS011;60752;53.962;9.614;2023-02-18T01:41:51;15.50;;;1.90;;
72674;SDS011;60752;53.962;9.614;2023-02-18T01:46:53;29.83;;;3.27;;
72674;SDS011;60752;53.962;9.614;2023-02-18T01:51:55;17.55;;;2.92;;
72674;SDS011;60752;53.962;9.614;2023-02-18T01:56:58;12.70;;;1.80;;
72674;SDS011;60752;53.962;9.614;2023-02-18T02:02:02;16.25;;;2.00;;
72674;SDS011;60752;53.962;9.614;2023-02-18T02:07:04;14.70;;;2.25;;
72674;SDS011;60752;53.962;9.614;2023-02-18T02:12:09;18.10;;;2.20;;
72674;SDS011;60752;53.962;9.614;2023-02-18T02:17:33;14.55;;;1.98;;
72674;SDS011;60752;53.962;9.614;2023-02-18T02:23:01;12.23;;;2.17;;
72674;SDS011;60752;53.962;9.614;2023-02-18T02:28:29;11.30;;;1.75;;
72674;SDS011;60752;53.962;9.614;2023-02-18T02:33:55;19.67;;;2.20;;
72674;SDS011;60752;53.962;9.614;2023-02-18T02:39:19;17.63;;;2.10;;
72674;SDS011;60752;53.962;9.614;2023-02-18T02:44:29;14.57;;;2.47;;
72674;SDS011;60752;53.962;9.614;2023-02-18T02:49:38;19.67;;;2.47;;
72674;SDS011;60752;53.962;9.614;2023-02-18T02:54:48;14.02;;;2.63;;
72674;SDS011;60752;53.962;9.614;2023-02-18T02:59:49;20.27;;;2.60;;
72674;SDS011;60752;53.962;9.614;2023-02-18T03:05:14;15.05;;;2.85;;
72674;SDS011;60752;53.962;9.614;2023-02-18T03:10:28;12.40;;;2.13;;
72674;SDS011;60752;53.962;9.614;2023-02-18T03:15:42;11.93;;;2.10;;
72674;SDS011;60752;53.962;9.614;2023-02-18T03:20:50;17.15;;;2.45;;
72674;SDS011;60752;53.962;9.614;2023-02-18T03:25:55;14.90;;;2.20;;
72674;SDS011;60752;53.962;9.614;2023-02-18T03:30:59;16.80;;;2.23;;
72674;SDS011;60752;53.962;9.614;2023-02-18T03:36:02;18.27;;;2.30;;
72674;SDS011;60752;53.962;9.614;2023-02-18T03:41:05;11.32;;;1.77;;
72674;SDS011;60752;53.962;9.614;2023-02-18T03:46:05;17.98;;;2.35;;
72674;SDS011;60752;53.962;9.614;2023-02-18T03:51:06;16.40;;;2.30;;
72674;SDS011;60752;53.962;9.614;2023-02-18T03:56:08;15.33;;;2.07;;
72674;SDS011;60752;53.962;9.614;2023-02-18T04:01:09;6.35;;;1.67;;
72674;SDS011;60752;53.962;9.614;2023-02-18T04:06:09;9.83;;;1.73;;
72674;SDS011;60752;53.962;9.614;2023-02-18T04:11:11;5.63;;;0.93;;
72674;SDS011;60752;53.962;9.614;2023-02-18T04:16:11;6.10;;;1.45;;
72674;SDS011;60752;53.962;9.614;2023-02-18T04:21:12;9.57;;;1.40;;
72674;SDS011;60752;53.962;9.614;2023-02-18T04:26:14;12.30;;;1.33;;
72674;SDS011;60752;53.962;9.614;2023-02-18T04:31:14;13.90;;;2.07;;
72674;SDS011;60752;53.962;9.614;2023-02-18T04:36:15;14.20;;;1.70;;
72674;SDS011;60752;53.962;9.614;2023-02-18T04:41:17;13.77;;;1.73;;
72674;SDS011;60752;53.962;9.614;2023-02-18T04:46:17;13.35;;;1.70;;
72674;SDS011;60752;53.962;9.614;2023-02-18T04:51:17;17.47;;;1.60;;
72674;SDS011;60752;53.962;9.614;2023-02-18T04:56:19;10.40;;;2.13;;
72674;SDS011;60752;53.962;9.614;2023-02-18T05:01:20;8.52;;;1.58;;
72674;SDS011;60752;53.962;9.614;2023-02-18T05:06:20;7.93;;;2.23;;
72674;SDS011;60752;53.962;9.614;2023-02-18T05:11:22;11.73;;;1.60;;
72674;SDS011;60752;53.962;9.614;2023-02-18T05:16:22;7.93;;;1.98;;
72674;SDS011;60752;53.962;9.614;2023-02-18T05:21:23;12.67;;;1.80;;
72674;SDS011;60752;53.962;9.614;2023-02-18T05:26:25;10.47;;;1.63;;
72674;SDS011;60752;53.962;9.614;2023-02-18T05:31:25;13.60;;;2.50;;
72674;SDS011;60752;53.962;9.614;2023-02-18T05:36:26;8.57;;;1.87;;
72674;SDS011;60752;53.962;9.614;2023-02-18T05:41:27;12.37;;;1.90;;
72674;SDS011;60752;53.962;9.614;2023-02-18T05:46:28;10.77;;;1.33;;
72674;SDS011;60752;53.962;9.614;2023-02-18T05:51:28;9.07;;;1.63;;
72674;SDS011;60752;53.962;9.614;2023-02-18T05:56:30;13.67;;;1.93;;
72674;SDS011;60752;53.962;9.614;2023-02-18T06:01:30;16.25;;;2.28;;
72674;SDS011;60752;53.962;9.614;2023-02-18T06:06:31;13.53;;;1.30;;
72674;SDS011;60752;53.962;9.614;2023-02-18T06:11:33;8.30;;;1.23;;
72674;SDS011;60752;53.962;9.614;2023-02-18T06:16:34;6.43;;;1.85;;
72674;SDS011;60752;53.962;9.614;2023-02-18T06:21:34;7.10;;;1.50;;
72674;SDS011;60752;53.962;9.614;2023-02-18T06:26:36;13.50;;;2.00;;
72674;SDS011;60752;53.962;9.614;2023-02-18T06:31:37;11.75;;;1.88;;
72674;SDS011;60752;53.962;9.614;2023-02-18T06:36:37;3.53;;;1.27;;
72674;SDS011;60752;53.962;9.614;2023-02-18T06:41:39;17.37;;;2.20;;
72674;SDS011;60752;53.962;9.614;2023-02-18T06:46:39;8.85;;;1.88;;
72674;SDS011;60752;53.962;9.614;2023-02-18T06:51:40;5.47;;;1.97;;
72674;SDS011;60752;53.962;9.614;2023-02-18T06:56:42;17.43;;;2.13;;
72674;SDS011;60752;53.962;9.614;2023-02-18T07:01:42;5.80;;;1.60;;
72674;SDS011;60752;53.962;9.614;2023-02-18T07:06:42;7.57;;;1.50;;
72674;SDS011;60752;53.962;9.614;2023-02-18T07:11:44;11.33;;;1.90;;
72674;SDS011;60752;53.962;9.614;2023-02-18T07:16:45;5.37;;;1.10;;
72674;SDS011;60752;53.962;9.614;2023-02-18T07:21:45;6.10;;;1.30;;
72674;SDS011;60752;53.962;9.614;2023-02-18T07:26:47;9.30;;;1.33;;
72674;SDS011;60752;53.962;9.614;2023-02-18T07:31:47;4.83;;;1.13;;
72674;SDS011;60752;53.962;9.614;2023-02-18T07:36:48;4.33;;;1.03;;
72674;SDS011;60752;53.962;9.614;2023-02-18T07:41:50;7.90;;;1.30;;
72674;SDS011;60752;53.962;9.614;2023-02-18T07:46:50;6.93;;;1.08;;
72674;SDS011;60752;53.962;9.614;2023-02-18T07:51:50;7.07;;;1.00;;
72674;SDS011;60752;53.962;9.614;2023-02-18T07:56:52;4.53;;;1.10;;
72674;SDS011;60752;53.962;9.614;2023-02-18T08:01:53;6.85;;;1.48;;
72674;SDS011;60752;53.962;9.614;2023-02-18T08:06:53;7.83;;;1.50;;
72674;SDS011;60752;53.962;9.614;2023-02-18T08:11:55;3.70;;;1.40;;
72674;SDS011;60752;53.962;9.614;2023-02-18T08:16:55;6.83;;;1.53;;
72674;SDS011;60752;53.962;9.614;2023-02-18T08:21:56;4.40;;;1.20;;
72674;SDS011;60752;53.962;9.614;2023-02-18T08:27:01;5.87;;;1.30;;
72674;SDS011;60752;53.962;9.614;2023-02-18T08:32:02;6.90;;;1.75;;
72674;SDS011;60752;53.962;9.614;2023-02-18T08:37:03;4.10;;;1.30;;
72674;SDS011;60752;53.962;9.614;2023-02-18T08:42:04;6.57;;;1.57;;
72674;SDS011;60752;53.962;9.614;2023-02-18T08:47:05;6.10;;;1.30;;
72674;SDS011;60752;53.962;9.614;2023-02-18T08:52:05;7.90;;;1.23;;
72674;SDS011;60752;53.962;9.614;2023-02-18T08:57:07;6.00;;;1.17;;
72674;SDS011;60752;53.962;9.614;2023-02-18T09:02:08;3.38;;;1.05;;
72674;SDS011;60752;53.962;9.614;2023-02-18T09:07:08;5.37;;;1.20;;
72674;SDS011;60752;53.962;9.614;2023-02-18T09:12:10;5.73;;;1.20;;
72674;SDS011;60752;53.962;9.614;2023-02-18T09:17:11;7.05;;;1.45;;
72674;SDS011;60752;53.962;9.614;2023-02-18T09:22:11;5.07;;;1.10;;
72674;SDS011;60752;53.962;9.614;2023-02-18T09:27:13;3.13;;;1.10;;
72674;SDS011;60752;53.962;9.614;2023-02-18T09:32:13;8.07;;;2.30;;
72674;SDS011;60752;53.962;9.614;2023-02-18T09:37:14;6.40;;;1.47;;
72674;SDS011;60752;53.962;9.614;2023-02-18T09:42:16;5.37;;;1.53;;
72674;SDS011;60752;53.962;9.614;2023-02-18T09:47:20;5.13;;;1.63;;
72674;SDS011;60752;53.962;9.614;2023-02-18T09:52:27;5.07;;;1.70;;
72674;SDS011;60752;53.962;9.614;2023-02-18T09:57:33;4.78;;;1.85;;
72674;SDS011;60752;53.962;9.614;2023-02-18T10:02:40;6.20;;;2.05;;
72674;SDS011;60752;53.962;9.614;2023-02-18T10:07:45;5.03;;;1.53;;
72674;SDS011;60752;53.962;9.614;2023-02-18T10:12:51;5.10;;;1.63;;
72674;SDS011;60752;53.962;9.614;2023-02-18T10:17:54;5.35;;;2.05;;
72674;SDS011;60752;53.962;9.614;2023-02-18T10:22:56;6.00;;;1.77;;
72674;SDS011;60752;53.962;9.614;2023-02-18T10:28:01;8.40;;;1.87;;
72674;SDS011;60752;53.962;9.614;2023-02-18T10:33:08;6.22;;;1.73;;
72674;SDS011;60752;53.962;9.614;2023-02-18T10:38:24;3.95;;;1.80;;
72674;SDS011;60752;53.962;9.614;2023-02-18T10:43:37;8.13;;;1.83;;
72674;SDS011;60752;53.962;9.614;2023-02-18T10:48:51;4.32;;;1.25;;
72674;SDS011;60752;53.962;9.614;2023-02-18T10:54:03;3.50;;;1.38;;
72674;SDS011;60752;53.962;9.614;2023-02-18T10:59:12;3.87;;;1.50;;
72674;SDS011;60752;53.962;9.614;2023-02-18T11:04:17;12.73;;;6.53;;
72674;SDS011;60752;53.962;9.614;2023-02-18T11:09:25;5.65;;;2.85;;
72674;SDS011;60752;53.962;9.614;2023-02-18T11:14:40;5.30;;;1.90;;
72674;SDS011;60752;53.962;9.614;2023-02-18T11:19:42;6.73;;;2.47;;
72674;SDS011;60752;53.962;9.614;2023-02-18T11:24:54;7.65;;;2.35;;
72674;SDS011;60752;53.962;9.614;2023-02-18T11:29:59;5.90;;;1.88;;
72674;SDS011;60752;53.962;9.614;2023-02-18T11:35:01;4.97;;;1.60;;
72674;SDS011;60752;53.962;9.614;2023-02-18T11:40:03;4.78;;;1.90;;
72674;SDS011;60752;53.962;9.614;2023-02-18T11:45:11;7.10;;;2.67;;
72674;SDS011;60752;53.962;9.614;2023-02-18T11:50:29;4.43;;;1.90;;
72674;SDS011;60752;53.962;9.614;2023-02-18T11:55:30;3.55;;;1.35;;
72674;SDS011;60752;53.962;9.614;2023-02-18T12:00:36;2.97;;;1.13;;
72674;SDS011;60752;53.962;9.614;2023-02-18T12:05:39;3.38;;;1.30;;
72674;SDS011;60752;53.962;9.614;2023-02-18T12:10:41;2.90;;;1.20;;
72674;SDS011;60752;53.962;9.614;2023-02-18T12:15:50;3.43;;;1.47;;
72674;SDS011;60752;53.962;9.614;2023-02-18T12:20:58;4.03;;;1.33;;
72674;SDS011;60752;53.962;9.614;2023-02-18T12:26:17;5.13;;;1.50;;
72674;SDS011;60752;53.962;9.614;2023-02-18T12:31:32;2.13;;;0.93;;
72674;SDS011;60752;53.962;9.614;2023-02-18T12:36:55;2.58;;;0.80;;
72674;SDS011;60752;53.962;9.614;2023-02-18T12:42:05;3.15;;;1.20;;
72674;SDS011;60752;53.962;9.614;2023-02-18T12:47:25;2.40;;;0.90;;
72674;SDS011;60752;53.962;9.614;2023-02-18T12:52:32;1.73;;;0.70;;
72674;SDS011;60752;53.962;9.614;2023-02-18T12:57:45;4.43;;;1.38;;
72674;SDS011;60752;53.962;9.614;2023-02-18T13:02:59;3.28;;;0.95;;
72674;SDS011;60752;53.962;9.614;2023-02-18T13:08:25;5.07;;;1.40;;
72674;SDS011;60752;53.962;9.614;2023-02-18T13:13:36;3.05;;;1.00;;
72674;SDS011;60752;53.962;9.614;2023-02-18T13:18:43;3.58;;;1.10;;
72674;SDS011;60752;53.962;9.614;2023-02-18T13:23:49;2.40;;;0.87;;
72674;SDS011;60752;53.962;9.614;2023-02-18T13:28:54;1.67;;;0.70;;
72674;SDS011;60752;53.962;9.614;2023-02-18T13:34:10;3.30;;;1.10;;
72674;SDS011;60752;53.962;9.614;2023-02-18T13:39:15;1.77;;;0.70;;
72674;SDS011;60752;53.962;9.614;2023-02-18T13:49:55;2.28;;;0.80;;
72674;SDS011;60752;53.962;9.614;2023-02-18T13:54:55;2.50;;;0.90;;
72674;SDS011;60752;53.962;9.614;2023-02-18T13:59:56;1.60;;;0.67;;
72674;SDS011;60752;53.962;9.614;2023-02-18T14:05:16;1.85;;;0.70;;
72674;SDS011;60752;53.962;9.614;2023-02-18T14:10:28;2.90;;;1.07;;
72674;SDS011;60752;53.962;9.614;2023-02-18T14:21:03;2.47;;;0.95;;
72674;SDS011;60752;53.962;9.614;2023-02-18T14:26:22;3.07;;;1.17;;
72674;SDS011;60752;53.962;9.614;2023-02-18T14:31:28;2.60;;;1.00;;
72674;SDS011;60752;53.962;9.614;2023-02-18T14:36:35;2.50;;;1.10;;
72674;SDS011;60752;53.962;9.614;2023-02-18T14:41:43;3.10;;;1.23;;
72674;SDS011;60752;53.962;9.614;2023-02-18T14:46:58;3.23;;;1.20;;
72674;SDS011;60752;53.962;9.614;2023-02-18T14:52:14;3.60;;;1.30;;
72674;SDS011;60752;53.962;9.614;2023-02-18T14:57:31;5.22;;;2.20;;
72674;SDS011;60752;53.962;9.614;2023-02-18T15:02:36;3.13;;;1.33;;
72674;SDS011;60752;53.962;9.614;2023-02-18T15:07:39;2.97;;;1.17;;
72674;SDS011;60752;53.962;9.614;2023-02-18T15:12:39;2.58;;;0.95;;
72674;SDS011;60752;53.962;9.614;2023-02-18T15:17:42;2.43;;;0.80;;
72674;SDS011;60752;53.962;9.614;2023-02-18T15:22:47;3.67;;;1.33;;
72674;SDS011;60752;53.962;9.614;2023-02-18T15:27:50;3.40;;;1.13;;
72674;SDS011;60752;53.962;9.614;2023-02-18T15:32:51;3.50;;;1.30;;
72674;SDS011;60752;53.962;9.614;2023-02-18T15:37:55;3.03;;;0.95;;
72674;SDS011;60752;53.962;9.614;2023-02-18T15:42:56;3.47;;;1.50;;
72674;SDS011;60752;53.962;9.614;2023-02-18T15:47:58;4.82;;;1.45;;
72674;SDS011;60752;53.962;9.614;2023-02-18T15:53:04;4.60;;;2.00;;
72674;SDS011;60752;53.962;9.614;2023-02-18T15:58:10;3.30;;;1.30;;
72674;SDS011;60752;53.962;9.614;2023-02-18T16:03:14;4.00;;;1.70;;
72674;SDS011;60752;53.962;9.614;2023-02-18T16:08:23;5.38;;;1.63;;
72674;SDS011;60752;53.962;9.614;2023-02-18T16:13:25;3.08;;;1.00;;
72674;SDS011;60752;53.962;9.614;2023-02-18T16:18:27;3.40;;;1.30;;
72674;SDS011;60752;53.962;9.614;2023-02-18T16:23:33;3.65;;;1.20;;
72674;SDS011;60752;53.962;9.614;2023-02-18T16:28:40;2.97;;;1.20;;
72674;SDS011;60752;53.962;9.614;2023-02-18T16:33:41;3.05;;;1.00;;
72674;SDS011;60752;53.962;9.614;2023-02-18T16:38:43;5.47;;;1.77;;
72674;SDS011;60752;53.962;9.614;2023-02-18T16:43:44;4.65;;;1.52;;
72674;SDS011;60752;53.962;9.614;2023-02-18T16:48:45;4.50;;;1.40;;
72674;SDS011;60752;53.962;9.614;2023-02-18T16:53:49;4.85;;;1.30;;
72674;SDS011;60752;53.962;9.614;2023-02-18T16:58:50;6.00;;;2.10;;
72674;SDS011;60752;53.962;9.614;2023-02-18T17:03:51;7.45;;;2.78;;
72674;SDS011;60752;53.962;9.614;2023-02-18T17:08:53;11.07;;;3.70;;
72674;SDS011;60752;53.962;9.614;2023-02-18T17:13:54;6.90;;;2.83;;
72674;SDS011;60752;53.962;9.614;2023-02-18T17:18:55;6.47;;;2.95;;
72674;SDS011;60752;53.962;9.614;2023-02-18T17:23:57;7.53;;;3.20;;
72674;SDS011;60752;53.962;9.614;2023-02-18T17:28:58;7.10;;;3.40;;
72674;SDS011;60752;53.962;9.614;2023-02-18T17:34:00;9.90;;;4.40;;
72674;SDS011;60752;53.962;9.614;2023-02-18T17:39:07;9.60;;;4.72;;
72674;SDS011;60752;53.962;9.614;2023-02-18T17:44:12;10.00;;;5.33;;
72674;SDS011;60752;53.962;9.614;2023-02-18T17:49:14;11.48;;;5.30;;
72674;SDS011;60752;53.962;9.614;2023-02-18T17:54:16;8.47;;;4.07;;
72674;SDS011;60752;53.962;9.614;2023-02-18T17:59:17;9.85;;;4.85;;
72674;SDS011;60752;53.962;9.614;2023-02-18T18:04:18;9.40;;;4.27;;
72674;SDS011;60752;53.962;9.614;2023-02-18T18:09:20;7.00;;;3.50;;
72674;SDS011;60752;53.962;9.614;2023-02-18T18:14:20;7.20;;;3.67;;
72674;SDS011;60752;53.962;9.614;2023-02-18T18:19:20;7.23;;;3.33;;
72674;SDS011;60752;53.962;9.614;2023-02-18T18:24:22;8.10;;;3.93;;
72674;SDS011;60752;53.962;9.614;2023-02-18T18:29:22;8.20;;;4.03;;
72674;SDS011;60752;53.962;9.614;2023-02-18T18:34:23;6.23;;;2.70;;
72674;SDS011;60752;53.962;9.614;2023-02-18T18:39:25;5.37;;;2.40;;
72674;SDS011;60752;53.962;9.614;2023-02-18T18:44:25;5.60;;;2.30;;
72674;SDS011;60752;53.962;9.614;2023-02-18T18:49:25;6.28;;;2.70;;
72674;SDS011;60752;53.962;9.614;2023-02-18T18:54:27;4.77;;;2.10;;
72674;SDS011;60752;53.962;9.614;2023-02-18T18:59:28;5.93;;;2.20;;
72674;SDS011;60752;53.962;9.614;2023-02-18T19:04:28;4.40;;;2.13;;
72674;SDS011;60752;53.962;9.614;2023-02-18T19:09:30;4.63;;;2.07;;
72674;SDS011;60752;53.962;9.614;2023-02-18T19:14:30;8.15;;;2.42;;
72674;SDS011;60752;53.962;9.614;2023-02-18T19:19:30;5.00;;;1.50;;
72674;SDS011;60752;53.962;9.614;2023-02-18T19:24:32;3.40;;;1.40;;
72674;SDS011;60752;53.962;9.614;2023-02-18T19:29:33;7.05;;;2.45;;
72674;SDS011;60752;53.962;9.614;2023-02-18T19:34:34;3.73;;;1.67;;
72674;SDS011;60752;53.962;9.614;2023-02-18T19:39:36;4.40;;;1.77;;
72674;SDS011;60752;53.962;9.614;2023-02-18T19:44:36;6.63;;;1.92;;
72674;SDS011;60752;53.962;9.614;2023-02-18T19:49:36;5.63;;;2.17;;
72674;SDS011;60752;53.962;9.614;2023-02-18T19:54:38;5.07;;;2.40;;
72674;SDS011;60752;53.962;9.614;2023-02-18T19:59:38;6.80;;;2.00;;
72674;SDS011;60752;53.962;9.614;2023-02-18T20:04:39;4.47;;;1.60;;
72674;SDS011;60752;53.962;9.614;2023-02-18T20:09:41;3.80;;;1.80;;
72674;SDS011;60752;53.962;9.614;2023-02-18T20:14:41;5.73;;;1.60;;
72674;SDS011;60752;53.962;9.614;2023-02-18T20:19:42;3.77;;;1.50;;
72674;SDS011;60752;53.962;9.614;2023-02-18T20:24:43;9.33;;;2.60;;
72674;SDS011;60752;53.962;9.614;2023-02-18T20:29:44;4.17;;;1.70;;
72674;SDS011;60752;53.962;9.614;2023-02-18T20:34:44;10.37;;;2.63;;
72674;SDS011;60752;53.962;9.614;2023-02-18T20:39:46;8.50;;;1.70;;
72674;SDS011;60752;53.962;9.614;2023-02-18T20:44:46;5.73;;;1.90;;
72674;SDS011;60752;53.962;9.614;2023-02-18T20:49:47;6.80;;;1.90;;
72674;SDS011;60752;53.962;9.614;2023-02-18T20:54:49;4.83;;;1.83;;
72674;SDS011;60752;53.962;9.614;2023-02-18T20:59:49;4.57;;;1.42;;
72674;SDS011;60752;53.962;9.614;2023-02-18T21:04:49;6.77;;;1.47;;
72674;SDS011;60752;53.962;9.614;2023-02-18T21:09:51;3.43;;;1.40;;
72674;SDS011;60752;53.962;9.614;2023-02-18T21:14:51;4.07;;;1.52;;
72674;SDS011;60752;53.962;9.614;2023-02-18T21:19:52;7.93;;;2.00;;
72674;SDS011;60752;53.962;9.614;2023-02-18T21:24:54;5.10;;;1.90;;
72674;SDS011;60752;53.962;9.614;2023-02-18T21:29:56;6.10;;;1.57;;
72674;SDS011;60752;53.962;9.614;2023-02-18T21:34:57;5.13;;;1.97;;
72674;SDS011;60752;53.962;9.614;2023-02-18T21:39:59;6.73;;;2.00;;
72674;SDS011;60752;53.962;9.614;2023-02-18T21:44:59;5.10;;;1.33;;
72674;SDS011;60752;53.962;9.614;2023-02-18T21:50:00;4.47;;;2.07;;
72674;SDS011;60752;53.962;9.614;2023-02-18T21:55:02;3.70;;;1.60;;
72674;SDS011;60752;53.962;9.614;2023-02-18T22:00:03;7.22;;;1.38;;
72674;SDS011;60752;53.962;9.614;2023-02-18T22:05:04;6.10;;;1.40;;
72674;SDS011;60752;53.962;9.614;2023-02-18T22:10:07;4.53;;;1.80;;
72674;SDS011;60752;53.962;9.614;2023-02-18T22:15:07;4.57;;;1.52;;
72674;SDS011;60752;53.962;9.614;2023-02-18T22:20:08;7.10;;;1.67;;
72674;SDS011;60752;53.962;9.614;2023-02-18T22:25:11;5.60;;;1.52;;
72674;SDS011;60752;53.962;9.614;2023-02-18T22:30:11;9.40;;;1.37;;
72674;SDS011;60752;53.962;9.614;2023-02-18T22:35:12;6.87;;;1.60;;
72674;SDS011;60752;53.962;9.614;2023-02-18T22:40:13;4.07;;;1.80;;
72674;SDS011;60752;53.962;9.614;2023-02-18T22:45:14;4.10;;;1.20;;
72674;SDS011;60752;53.962;9.614;2023-02-18T22:50:15;4.93;;;1.25;;
72674;SDS011;60752;53.962;9.614;2023-02-18T22:55:16;3.53;;;1.67;;
72674;SDS011;60752;53.962;9.614;2023-02-18T23:00:17;3.42;;;1.20;;
72674;SDS011;60752;53.962;9.614;2023-02-18T23:05:22;7.27;;;1.73;;
72674;SDS011;60752;53.962;9.614;2023-02-18T23:10:23;5.07;;;1.60;;
72674;SDS011;60752;53.962;9.614;2023-02-18T23:15:24;5.18;;;1.35;;
72674;SDS011;60752;53.962;9.614;2023-02-18T23:20:24;6.13;;;1.30;;
72674;SDS011;60752;53.962;9.614;2023-02-18T23:25:26;7.23;;;1.40;;
72674;SDS011;60752;53.962;9.614;2023-02-18T23:30:26;4.50;;;1.10;;
72674;SDS011;60752;53.962;9.614;2023-02-18T23:35:27;4.20;;;1.40;;
72674;SDS011;60752;53.962;9.614;2023-02-18T23:40:28;3.53;;;1.20;;
72674;SDS011;60752;53.962;9.614;2023-02-18T23:45:29;5.57;;;1.20;;
72674;SDS011;60752;53.962;9.614;2023-02-18T23:50:29;4.77;;;1.30;;
72674;SDS011;60752;53.962;9.614;2023-02-18T23:55:31;5.47;;;1.20;;
